sensor_id;sensor_type;location;lat;lon;timestamp;pressure;altitude;pressure_sealevel;temperature;humidity
10897;BME280;5501;51.176;6.470;2023-10-31T00:01:53;99123.56;;;13.08;100.00
10897;BME280;5501;51.176;6.470;2023-10-31T00:06:55;99133.25;;;12.95;100.00
10897;BME280;5501;51.176;6.470;2023-10-31T00:11:57;99137.56;;;12.98;100.00
10897;BME280;5501;51.176;6.470;2023-10-31T00:16:59;99162.69;;;12.94;100.00
10897;BME280;5501;51.176;6.470;2023-10-31T00:22:01;99166.50;;;12.90;100.00
10897;BME280;5501;51.176;6.470;2023-10-31T00:27:02;99178.13;;;12.89;100.00
10897;BME280;5501;51.176;6.470;2023-10-31T00:32:04;99186.88;;;12.77;100.00
10897;BME280;5501;51.176;6.470;2023-10-31T00:37:08;99191.25;;;12.64;100.00
10897;BME280;5501;51.176;6.470;2023-10-31T00:42:09;99193.75;;;12.81;100.00
10897;BME280;5501;51.176;6.470;2023-10-31T00:47:11;99205.09;;;12.84;100.00
10897;BME280;5501;51.176;6.470;2023-10-31T00:52:12;99211.06;;;12.74;100.00
10897;BME280;5501;51.176;6.470;2023-10-31T00:57:14;99220.25;;;12.84;100.00
10897;BME280;5501;51.176;6.470;2023-10-31T01:02:15;99226.91;;;12.91;100.00
10897;BME280;5501;51.176;6.470;2023-10-31T01:07:17;99218.81;;;12.92;100.00
10897;BME280;5501;51.176;6.470;2023-10-31T01:12:18;99240.81;;;12.82;100.00
10897;BME280;5501;51.176;6.470;2023-10-31T01:17:20;99235.66;;;13.08;100.00
10897;BME280;5501;51.176;6.470;2023-10-31T01:22:22;99252.63;;;13.07;100.00
10897;BME280;5501;51.176;6.470;2023-10-31T01:27:24;99246.00;;;12.99;100.00
10897;BME280;5501;51.176;6.470;2023-10-31T01:32:25;99251.88;;;12.90;100.00
10897;BME280;5501;51.176;6.470;2023-10-31T01:37:28;99262.94;;;12.84;100.00
10897;BME280;5501;51.176;6.470;2023-10-31T01:42:30;99254.47;;;12.91;100.00
10897;BME280;5501;51.176;6.470;2023-10-31T01:47:31;99263.78;;;13.00;100.00
10897;BME280;5501;51.176;6.470;2023-10-31T01:52:33;99270.72;;;13.16;100.00
10897;BME280;5501;51.176;6.470;2023-10-31T01:57:37;99273.72;;;12.96;100.00
10897;BME280;5501;51.176;6.470;2023-10-31T02:02:40;99273.28;;;12.74;100.00
10897;BME280;5501;51.176;6.470;2023-10-31T02:07:45;99261.03;;;12.86;100.00
10897;BME280;5501;51.176;6.470;2023-10-31T02:12:47;99265.88;;;12.79;100.00
10897;BME280;5501;51.176;6.470;2023-10-31T02:17:49;99258.75;;;12.80;100.00
10897;BME280;5501;51.176;6.470;2023-10-31T02:22:51;99269.75;;;12.74;100.00
10897;BME280;5501;51.176;6.470;2023-10-31T02:27:53;99264.50;;;12.72;100.00
10897;BME280;5501;51.176;6.470;2023-10-31T02:32:54;99262.66;;;12.59;100.00
10897;BME280;5501;51.176;6.470;2023-10-31T02:37:56;99258.06;;;12.47;100.00
10897;BME280;5501;51.176;6.470;2023-10-31T02:42:58;99261.53;;;12.63;100.00
10897;BME280;5501;51.176;6.470;2023-10-31T02:47:59;99257.28;;;12.74;100.00
10897;BME280;5501;51.176;6.470;2023-10-31T02:53:02;99250.09;;;12.61;100.00
10897;BME280;5501;51.176;6.470;2023-10-31T02:58:03;99252.31;;;12.68;100.00
10897;BME280;5501;51.176;6.470;2023-10-31T03:03:05;99258.13;;;12.75;100.00
10897;BME280;5501;51.176;6.470;2023-10-31T03:08:06;99265.59;;;12.54;100.00
10897;BME280;5501;51.176;6.470;2023-10-31T03:13:09;99260.13;;;12.71;100.00
10897;BME280;5501;51.176;6.470;2023-10-31T03:18:11;99270.00;;;12.85;100.00
10897;BME280;5501;51.176;6.470;2023-10-31T03:23:13;99281.88;;;12.79;100.00
10897;BME280;5501;51.176;6.470;2023-10-31T03:28:20;99283.50;;;12.82;100.00
10897;BME280;5501;51.176;6.470;2023-10-31T03:33:25;99279.13;;;12.81;100.00
10897;BME280;5501;51.176;6.470;2023-10-31T03:38:26;99289.16;;;12.91;100.00
10897;BME280;5501;51.176;6.470;2023-10-31T03:43:28;99292.06;;;12.73;100.00
10897;BME280;5501;51.176;6.470;2023-10-31T03:48:30;99301.41;;;12.80;100.00
10897;BME280;5501;51.176;6.470;2023-10-31T03:53:31;99304.09;;;12.80;100.00
10897;BME280;5501;51.176;6.470;2023-10-31T03:58:33;99319.63;;;12.87;100.00
10897;BME280;5501;51.176;6.470;2023-10-31T04:03:35;99315.88;;;12.76;100.00
10897;BME280;5501;51.176;6.470;2023-10-31T04:08:36;99326.31;;;12.65;100.00
10897;BME280;5501;51.176;6.470;2023-10-31T04:13:38;99326.50;;;12.62;100.00
10897;BME280;5501;51.176;6.470;2023-10-31T04:18:39;99333.63;;;12.91;100.00
10897;BME280;5501;51.176;6.470;2023-10-31T04:23:41;99336.91;;;12.96;100.00
10897;BME280;5501;51.176;6.470;2023-10-31T04:28:42;99349.31;;;12.97;100.00
10897;BME280;5501;51.176;6.470;2023-10-31T04:33:44;99361.19;;;12.91;100.00
10897;BME280;5501;51.176;6.470;2023-10-31T04:38:45;99360.75;;;12.69;100.00
10897;BME280;5501;51.176;6.470;2023-10-31T04:43:47;99373.25;;;12.83;100.00
10897;BME280;5501;51.176;6.470;2023-10-31T04:48:49;99377.75;;;12.67;100.00
10897;BME280;5501;51.176;6.470;2023-10-31T04:53:50;99385.28;;;12.90;100.00
10897;BME280;5501;51.176;6.470;2023-10-31T04:58:52;99393.22;;;12.91;100.00
10897;BME280;5501;51.176;6.470;2023-10-31T05:03:53;99392.53;;;12.88;100.00
10897;BME280;5501;51.176;6.470;2023-10-31T05:09:11;99398.22;;;12.82;100.00
10897;BME280;5501;51.176;6.470;2023-10-31T05:14:13;99401.75;;;12.82;100.00
10897;BME280;5501;51.176;6.470;2023-10-31T05:19:15;99397.38;;;12.66;100.00
10897;BME280;5501;51.176;6.470;2023-10-31T05:24:17;99401.00;;;12.65;100.00
10897;BME280;5501;51.176;6.470;2023-10-31T05:29:19;99399.09;;;12.67;100.00
10897;BME280;5501;51.176;6.470;2023-10-31T05:34:20;99414.22;;;12.51;100.00
10897;BME280;5501;51.176;6.470;2023-10-31T05:39:22;99424.81;;;12.52;100.00
10897;BME280;5501;51.176;6.470;2023-10-31T05:44:23;99438.16;;;12.37;100.00
10897;BME280;5501;51.176;6.470;2023-10-31T05:49:25;99435.56;;;12.20;100.00
10897;BME280;5501;51.176;6.470;2023-10-31T05:54:26;99443.19;;;12.26;100.00
10897;BME280;5501;51.176;6.470;2023-10-31T05:59:28;99465.69;;;12.37;100.00
10897;BME280;5501;51.176;6.470;2023-10-31T06:04:29;99463.63;;;12.42;100.00
10897;BME280;5501;51.176;6.470;2023-10-31T06:09:31;99476.34;;;12.53;100.00
10897;BME280;5501;51.176;6.470;2023-10-31T06:14:34;99482.19;;;12.44;100.00
10897;BME280;5501;51.176;6.470;2023-10-31T06:19:36;99489.94;;;12.48;100.00
10897;BME280;5501;51.176;6.470;2023-10-31T06:24:38;99505.34;;;12.59;100.00
10897;BME280;5501;51.176;6.470;2023-10-31T06:29:39;99506.44;;;12.55;100.00
10897;BME280;5501;51.176;6.470;2023-10-31T06:35:01;99504.66;;;12.40;100.00
10897;BME280;5501;51.176;6.470;2023-10-31T06:40:04;99515.50;;;12.20;100.00
10897;BME280;5501;51.176;6.470;2023-10-31T06:45:06;99518.63;;;12.28;100.00
10897;BME280;5501;51.176;6.470;2023-10-31T06:50:09;99526.75;;;12.42;100.00
10897;BME280;5501;51.176;6.470;2023-10-31T06:55:11;99529.59;;;12.54;100.00
10897;BME280;5501;51.176;6.470;2023-10-31T07:00:14;99538.59;;;12.36;100.00
10897;BME280;5501;51.176;6.470;2023-10-31T07:05:16;99531.47;;;12.37;100.00
10897;BME280;5501;51.176;6.470;2023-10-31T07:10:18;99532.78;;;12.45;100.00
10897;BME280;5501;51.176;6.470;2023-10-31T07:15:19;99524.88;;;12.59;100.00
10897;BME280;5501;51.176;6.470;2023-10-31T07:20:22;99547.84;;;12.46;100.00
10897;BME280;5501;51.176;6.470;2023-10-31T07:25:23;99563.16;;;12.58;100.00
10897;BME280;5501;51.176;6.470;2023-10-31T07:30:25;99570.50;;;12.38;100.00
10897;BME280;5501;51.176;6.470;2023-10-31T07:35:27;99572.50;;;12.50;100.00
10897;BME280;5501;51.176;6.470;2023-10-31T07:40:28;99572.06;;;12.42;100.00
10897;BME280;5501;51.176;6.470;2023-10-31T07:45:30;99579.34;;;12.71;100.00
10897;BME280;5501;51.176;6.470;2023-10-31T07:50:32;99580.00;;;12.76;100.00
10897;BME280;5501;51.176;6.470;2023-10-31T07:55:33;99586.44;;;12.72;100.00
10897;BME280;5501;51.176;6.470;2023-10-31T08:00:35;99593.56;;;12.71;100.00
10897;BME280;5501;51.176;6.470;2023-10-31T08:05:37;99582.22;;;12.68;100.00
10897;BME280;5501;51.176;6.470;2023-10-31T08:10:39;99592.03;;;12.83;100.00
10897;BME280;5501;51.176;6.470;2023-10-31T08:15:40;99604.09;;;12.90;100.00
10897;BME280;5501;51.176;6.470;2023-10-31T08:20:42;99607.88;;;12.86;100.00
10897;BME280;5501;51.176;6.470;2023-10-31T08:25:44;99612.88;;;12.92;100.00
10897;BME280;5501;51.176;6.470;2023-10-31T08:30:46;99610.31;;;12.90;100.00
10897;BME280;5501;51.176;6.470;2023-10-31T08:35:48;99612.63;;;12.96;100.00
10897;BME280;5501;51.176;6.470;2023-10-31T08:40:50;99618.63;;;12.84;100.00
10897;BME280;5501;51.176;6.470;2023-10-31T08:45:51;99620.59;;;12.81;100.00
10897;BME280;5501;51.176;6.470;2023-10-31T08:50:53;99636.25;;;12.87;100.00
10897;BME280;5501;51.176;6.470;2023-10-31T08:55:55;99643.16;;;12.91;100.00
10897;BME280;5501;51.176;6.470;2023-10-31T09:00:57;99654.09;;;13.03;100.00
10897;BME280;5501;51.176;6.470;2023-10-31T09:05:59;99646.16;;;13.02;100.00
10897;BME280;5501;51.176;6.470;2023-10-31T09:11:00;99654.00;;;13.36;100.00
10897;BME280;5501;51.176;6.470;2023-10-31T09:16:03;99656.34;;;13.42;100.00
10897;BME280;5501;51.176;6.470;2023-10-31T09:21:05;99678.91;;;13.52;100.00
10897;BME280;5501;51.176;6.470;2023-10-31T09:26:06;99674.78;;;13.46;100.00
10897;BME280;5501;51.176;6.470;2023-10-31T09:31:08;99689.00;;;13.47;100.00
10897;BME280;5501;51.176;6.470;2023-10-31T09:36:10;99699.97;;;13.58;98.45
10897;BME280;5501;51.176;6.470;2023-10-31T09:41:12;99711.00;;;13.67;97.54
10897;BME280;5501;51.176;6.470;2023-10-31T09:46:16;99722.34;;;13.71;96.06
10897;BME280;5501;51.176;6.470;2023-10-31T09:51:18;99718.56;;;13.75;96.42
10897;BME280;5501;51.176;6.470;2023-10-31T09:56:21;99733.03;;;13.71;96.25
10897;BME280;5501;51.176;6.470;2023-10-31T10:01:23;99739.78;;;13.78;95.96
10897;BME280;5501;51.176;6.470;2023-10-31T10:06:24;99746.69;;;13.82;96.39
10897;BME280;5501;51.176;6.470;2023-10-31T10:11:26;99753.38;;;13.58;97.78
10897;BME280;5501;51.176;6.470;2023-10-31T10:16:32;99755.28;;;13.87;97.59
10897;BME280;5501;51.176;6.470;2023-10-31T10:21:46;99762.69;;;14.13;95.46
10897;BME280;5501;51.176;6.470;2023-10-31T10:26:49;99763.22;;;14.04;94.25
10897;BME280;5501;51.176;6.470;2023-10-31T10:31:51;99782.72;;;14.06;93.54
10897;BME280;5501;51.176;6.470;2023-10-31T10:36:53;99773.16;;;14.02;92.84
10897;BME280;5501;51.176;6.470;2023-10-31T10:41:55;99779.84;;;14.40;90.97
10897;BME280;5501;51.176;6.470;2023-10-31T10:47:02;99779.69;;;14.43;91.07
10897;BME280;5501;51.176;6.470;2023-10-31T10:52:20;99784.94;;;14.29;89.59
10897;BME280;5501;51.176;6.470;2023-10-31T11:02:46;99784.91;;;14.60;89.33
10897;BME280;5501;51.176;6.470;2023-10-31T11:07:51;99792.34;;;14.55;88.05
10897;BME280;5501;51.176;6.470;2023-10-31T11:12:53;99775.06;;;14.60;88.23
10897;BME280;5501;51.176;6.470;2023-10-31T11:17:55;99789.84;;;14.81;86.92
10897;BME280;5501;51.176;6.470;2023-10-31T11:22:57;99794.88;;;14.72;87.48
10897;BME280;5501;51.176;6.470;2023-10-31T11:28:19;99801.41;;;14.82;87.40
10897;BME280;5501;51.176;6.470;2023-10-31T11:33:21;99804.31;;;14.63;88.84
10897;BME280;5501;51.176;6.470;2023-10-31T11:38:36;99808.13;;;14.89;87.99
10897;BME280;5501;51.176;6.470;2023-10-31T11:48:50;99804.09;;;14.82;86.17
10897;BME280;5501;51.176;6.470;2023-10-31T11:53:53;99818.16;;;14.56;87.82
10897;BME280;5501;51.176;6.470;2023-10-31T11:59:02;99812.72;;;14.57;86.96
10897;BME280;5501;51.176;6.470;2023-10-31T12:04:05;99810.94;;;14.72;86.44
10897;BME280;5501;51.176;6.470;2023-10-31T12:09:09;99812.16;;;14.66;86.22
10897;BME280;5501;51.176;6.470;2023-10-31T12:14:10;99814.94;;;14.65;86.32
10897;BME280;5501;51.176;6.470;2023-10-31T12:19:12;99820.41;;;14.48;88.03
10897;BME280;5501;51.176;6.470;2023-10-31T12:24:15;99818.59;;;14.48;88.53
10897;BME280;5501;51.176;6.470;2023-10-31T12:29:19;99815.97;;;14.62;87.88
10897;BME280;5501;51.176;6.470;2023-10-31T12:34:22;99820.28;;;14.65;87.43
10897;BME280;5501;51.176;6.470;2023-10-31T12:39:26;99819.31;;;14.95;87.22
10897;BME280;5501;51.176;6.470;2023-10-31T12:44:28;99818.16;;;15.29;83.70
10897;BME280;5501;51.176;6.470;2023-10-31T12:49:30;99819.56;;;15.36;82.89
10897;BME280;5501;51.176;6.470;2023-10-31T12:54:33;99819.63;;;15.35;81.11
10897;BME280;5501;51.176;6.470;2023-10-31T12:59:38;99821.19;;;15.09;81.06
10897;BME280;5501;51.176;6.470;2023-10-31T13:04:40;99822.34;;;15.19;81.61
10897;BME280;5501;51.176;6.470;2023-10-31T13:09:42;99822.13;;;15.38;81.05
10897;BME280;5501;51.176;6.470;2023-10-31T13:14:44;99815.03;;;15.37;82.54
10897;BME280;5501;51.176;6.470;2023-10-31T13:19:46;99822.00;;;15.39;80.52
10897;BME280;5501;51.176;6.470;2023-10-31T13:24:47;99821.00;;;15.26;79.86
10897;BME280;5501;51.176;6.470;2023-10-31T13:29:50;99820.13;;;15.11;82.21
10897;BME280;5501;51.176;6.470;2023-10-31T13:34:51;99826.78;;;15.34;81.15
10897;BME280;5501;51.176;6.470;2023-10-31T13:39:53;99823.56;;;15.43;80.34
10897;BME280;5501;51.176;6.470;2023-10-31T13:44:55;99818.19;;;15.43;80.08
10897;BME280;5501;51.176;6.470;2023-10-31T13:49:56;99819.88;;;15.30;80.51
10897;BME280;5501;51.176;6.470;2023-10-31T13:54:58;99820.81;;;15.59;79.93
10897;BME280;5501;51.176;6.470;2023-10-31T13:59:59;99834.66;;;15.51;78.73
10897;BME280;5501;51.176;6.470;2023-10-31T14:05:02;99839.19;;;15.21;80.60
10897;BME280;5501;51.176;6.470;2023-10-31T14:10:06;99831.81;;;15.40;79.22
10897;BME280;5501;51.176;6.470;2023-10-31T14:15:08;99818.91;;;15.31;81.21
10897;BME280;5501;51.176;6.470;2023-10-31T14:20:10;99829.97;;;15.41;78.95
10897;BME280;5501;51.176;6.470;2023-10-31T14:25:12;99831.97;;;15.37;77.84
10897;BME280;5501;51.176;6.470;2023-10-31T14:30:14;99834.41;;;15.12;78.27
10897;BME280;5501;51.176;6.470;2023-10-31T14:35:17;99837.06;;;15.12;79.09
10897;BME280;5501;51.176;6.470;2023-10-31T14:40:19;99846.84;;;15.27;79.46
10897;BME280;5501;51.176;6.470;2023-10-31T14:45:20;99843.09;;;15.15;80.49
10897;BME280;5501;51.176;6.470;2023-10-31T14:50:22;99855.31;;;15.05;82.03
10897;BME280;5501;51.176;6.470;2023-10-31T14:55:24;99856.31;;;14.89;84.08
10897;BME280;5501;51.176;6.470;2023-10-31T15:00:25;99866.31;;;15.01;83.84
10897;BME280;5501;51.176;6.470;2023-10-31T15:05:27;99865.81;;;14.94;85.26
10897;BME280;5501;51.176;6.470;2023-10-31T15:10:28;99871.16;;;14.94;85.93
10897;BME280;5501;51.176;6.470;2023-10-31T15:15:30;99875.63;;;14.94;86.41
10897;BME280;5501;51.176;6.470;2023-10-31T15:20:32;99877.31;;;14.81;86.76
10897;BME280;5501;51.176;6.470;2023-10-31T15:25:34;99884.59;;;14.79;88.22
10897;BME280;5501;51.176;6.470;2023-10-31T15:30:36;99886.13;;;14.83;89.63
10897;BME280;5501;51.176;6.470;2023-10-31T15:35:37;99906.44;;;14.56;94.74
10897;BME280;5501;51.176;6.470;2023-10-31T15:40:41;99912.09;;;14.19;100.00
10897;BME280;5501;51.176;6.470;2023-10-31T15:45:43;99922.50;;;14.08;100.00
10897;BME280;5501;51.176;6.470;2023-10-31T15:50:45;99919.44;;;13.83;100.00
10897;BME280;5501;51.176;6.470;2023-10-31T15:55:46;99922.00;;;13.69;100.00
10897;BME280;5501;51.176;6.470;2023-10-31T16:00:48;99924.03;;;13.64;100.00
10897;BME280;5501;51.176;6.470;2023-10-31T16:05:49;99921.38;;;13.47;100.00
10897;BME280;5501;51.176;6.470;2023-10-31T16:10:51;99916.03;;;13.47;100.00
10897;BME280;5501;51.176;6.470;2023-10-31T16:15:53;99925.53;;;13.52;100.00
10897;BME280;5501;51.176;6.470;2023-10-31T16:20:55;99926.72;;;13.47;100.00
10897;BME280;5501;51.176;6.470;2023-10-31T16:25:57;99918.63;;;13.48;100.00
10897;BME280;5501;51.176;6.470;2023-10-31T16:30:59;99940.34;;;13.42;100.00
10897;BME280;5501;51.176;6.470;2023-10-31T16:36:01;99945.25;;;13.50;100.00
10897;BME280;5501;51.176;6.470;2023-10-31T16:41:03;99943.00;;;13.42;100.00
10897;BME280;5501;51.176;6.470;2023-10-31T16:46:05;99942.34;;;13.54;100.00
10897;BME280;5501;51.176;6.470;2023-10-31T16:51:18;99944.47;;;13.48;100.00
10897;BME280;5501;51.176;6.470;2023-10-31T16:56:20;99946.84;;;13.37;100.00
10897;BME280;5501;51.176;6.470;2023-10-31T17:01:22;99955.47;;;13.59;100.00
10897;BME280;5501;51.176;6.470;2023-10-31T17:06:24;99950.91;;;13.44;100.00
10897;BME280;5501;51.176;6.470;2023-10-31T17:11:25;99969.31;;;13.33;100.00
10897;BME280;5501;51.176;6.470;2023-10-31T17:16:27;99964.19;;;13.28;100.00
10897;BME280;5501;51.176;6.470;2023-10-31T17:21:29;99976.53;;;13.48;100.00
10897;BME280;5501;51.176;6.470;2023-10-31T17:26:30;99988.69;;;13.36;100.00
10897;BME280;5501;51.176;6.470;2023-10-31T17:31:32;99991.31;;;13.38;100.00
10897;BME280;5501;51.176;6.470;2023-10-31T17:36:36;100004.97;;;13.49;100.00
10897;BME280;5501;51.176;6.470;2023-10-31T17:41:37;100003.84;;;13.36;100.00
10897;BME280;5501;51.176;6.470;2023-10-31T17:46:39;100003.22;;;13.48;100.00
10897;BME280;5501;51.176;6.470;2023-10-31T17:51:41;100006.84;;;13.47;100.00
10897;BME280;5501;51.176;6.470;2023-10-31T17:56:43;100016.59;;;13.48;100.00
10897;BME280;5501;51.176;6.470;2023-10-31T18:01:44;100024.94;;;13.42;100.00
10897;BME280;5501;51.176;6.470;2023-10-31T18:06:46;100022.72;;;13.50;100.00
10897;BME280;5501;51.176;6.470;2023-10-31T18:11:48;100025.72;;;13.61;100.00
10897;BME280;5501;51.176;6.470;2023-10-31T18:16:49;100017.69;;;13.44;100.00
10897;BME280;5501;51.176;6.470;2023-10-31T18:21:51;100021.09;;;13.47;100.00
10897;BME280;5501;51.176;6.470;2023-10-31T18:26:52;100043.84;;;13.37;100.00
10897;BME280;5501;51.176;6.470;2023-10-31T18:31:55;100035.28;;;13.48;100.00
10897;BME280;5501;51.176;6.470;2023-10-31T18:36:57;100030.66;;;13.51;100.00
10897;BME280;5501;51.176;6.470;2023-10-31T18:41:59;100037.47;;;13.40;100.00
10897;BME280;5501;51.176;6.470;2023-10-31T18:47:09;100028.84;;;13.35;100.00
10897;BME280;5501;51.176;6.470;2023-10-31T18:52:11;100034.03;;;13.38;100.00
10897;BME280;5501;51.176;6.470;2023-10-31T18:57:12;100040.16;;;13.40;100.00
10897;BME280;5501;51.176;6.470;2023-10-31T19:02:14;100035.13;;;13.51;100.00
10897;BME280;5501;51.176;6.470;2023-10-31T19:07:16;100023.75;;;13.47;100.00
10897;BME280;5501;51.176;6.470;2023-10-31T19:12:17;100022.66;;;13.51;100.00
10897;BME280;5501;51.176;6.470;2023-10-31T19:17:19;100010.75;;;13.40;100.00
10897;BME280;5501;51.176;6.470;2023-10-31T19:22:21;100026.97;;;13.37;100.00
10897;BME280;5501;51.176;6.470;2023-10-31T19:27:22;100030.56;;;13.36;100.00
10897;BME280;5501;51.176;6.470;2023-10-31T19:32:24;100030.31;;;13.23;100.00
10897;BME280;5501;51.176;6.470;2023-10-31T19:37:25;100027.13;;;13.34;100.00
10897;BME280;5501;51.176;6.470;2023-10-31T19:42:28;100022.25;;;13.25;100.00
10897;BME280;5501;51.176;6.470;2023-10-31T19:47:29;100031.00;;;13.10;100.00
10897;BME280;5501;51.176;6.470;2023-10-31T19:52:31;100029.69;;;13.18;100.00
10897;BME280;5501;51.176;6.470;2023-10-31T19:57:33;100039.63;;;13.15;100.00
10897;BME280;5501;51.176;6.470;2023-10-31T20:02:34;100031.34;;;13.21;100.00
10897;BME280;5501;51.176;6.470;2023-10-31T20:07:36;100032.91;;;13.25;100.00
10897;BME280;5501;51.176;6.470;2023-10-31T20:12:37;100039.66;;;13.32;100.00
10897;BME280;5501;51.176;6.470;2023-10-31T20:17:39;100033.47;;;13.31;100.00
10897;BME280;5501;51.176;6.470;2023-10-31T20:22:40;100035.19;;;13.32;100.00
10897;BME280;5501;51.176;6.470;2023-10-31T20:27:42;100040.69;;;13.29;100.00
10897;BME280;5501;51.176;6.470;2023-10-31T20:32:44;100040.69;;;13.29;100.00
10897;BME280;5501;51.176;6.470;2023-10-31T20:37:49;100033.47;;;13.31;100.00
10897;BME280;5501;51.176;6.470;2023-10-31T20:42:50;100039.59;;;13.33;100.00
10897;BME280;5501;51.176;6.470;2023-10-31T20:47:52;100037.09;;;13.30;100.00
10897;BME280;5501;51.176;6.470;2023-10-31T20:52:54;100034.31;;;13.32;100.00
10897;BME280;5501;51.176;6.470;2023-10-31T20:57:57;100027.41;;;13.28;100.00
10897;BME280;5501;51.176;6.470;2023-10-31T21:02:59;100015.41;;;13.36;100.00
10897;BME280;5501;51.176;6.470;2023-10-31T21:08:05;100023.34;;;13.38;100.00
10897;BME280;5501;51.176;6.470;2023-10-31T21:13:07;100011.88;;;13.36;100.00
10897;BME280;5501;51.176;6.470;2023-10-31T21:18:09;100007.41;;;13.36;100.00
10897;BME280;5501;51.176;6.470;2023-10-31T21:23:10;100009.66;;;13.44;100.00
10897;BME280;5501;51.176;6.470;2023-10-31T21:28:12;100027.88;;;13.36;100.00
10897;BME280;5501;51.176;6.470;2023-10-31T21:33:13;100023.50;;;13.35;100.00
10897;BME280;5501;51.176;6.470;2023-10-31T21:38:15;100031.38;;;13.38;100.00
10897;BME280;5501;51.176;6.470;2023-10-31T21:43:16;100052.78;;;13.36;100.00
10897;BME280;5501;51.176;6.470;2023-10-31T21:48:18;100043.91;;;13.36;100.00
10897;BME280;5501;51.176;6.470;2023-10-31T21:53:19;100037.66;;;13.37;100.00
10897;BME280;5501;51.176;6.470;2023-10-31T21:58:22;100031.78;;;13.47;100.00
10897;BME280;5501;51.176;6.470;2023-10-31T22:03:24;100024.94;;;13.42;100.00
10897;BME280;5501;51.176;6.470;2023-10-31T22:08:26;100027.44;;;13.45;100.00
10897;BME280;5501;51.176;6.470;2023-10-31T22:13:27;100028.69;;;13.38;100.00
10897;BME280;5501;51.176;6.470;2023-10-31T22:18:29;100019.59;;;13.42;100.00
10897;BME280;5501;51.176;6.470;2023-10-31T22:23:30;100032.44;;;13.34;100.00
10897;BME280;5501;51.176;6.470;2023-10-31T22:28:33;100024.69;;;13.46;100.00
10897;BME280;5501;51.176;6.470;2023-10-31T22:33:34;100026.78;;;13.40;100.00
10897;BME280;5501;51.176;6.470;2023-10-31T22:38:36;100028.84;;;13.52;100.00
10897;BME280;5501;51.176;6.470;2023-10-31T22:43:38;100040.19;;;13.57;100.00
10897;BME280;5501;51.176;6.470;2023-10-31T22:48:39;100026.03;;;13.55;100.00
10897;BME280;5501;51.176;6.470;2023-10-31T22:53:41;100027.94;;;13.53;100.00
10897;BME280;5501;51.176;6.470;2023-10-31T22:58:43;100024.59;;;13.48;100.00
10897;BME280;5501;51.176;6.470;2023-10-31T23:03:44;100026.03;;;13.55;100.00
10897;BME280;5501;51.176;6.470;2023-10-31T23:08:47;100012.81;;;13.52;100.00
10897;BME280;5501;51.176;6.470;2023-10-31T23:13:48;100020.69;;;13.55;100.00
10897;BME280;5501;51.176;6.470;2023-10-31T23:18:50;100030.59;;;13.53;100.00
10897;BME280;5501;51.176;6.470;2023-10-31T23:23:51;100018.34;;;13.49;100.00
10897;BME280;5501;51.176;6.470;2023-10-31T23:28:53;100017.47;;;13.65;100.00
10897;BME280;5501;51.176;6.470;2023-10-31T23:33:55;100017.38;;;13.67;100.00
10897;BME280;5501;51.176;6.470;2023-10-31T23:38:57;100012.03;;;13.67;100.00
10897;BME280;5501;51.176;6.470;2023-10-31T23:43:58;100016.44;;;13.68;100.00
10897;BME280;5501;51.176;6.470;2023-10-31T23:49:00;100012.75;;;13.53;100.00
10897;BME280;5501;51.176;6.470;2023-10-31T23:54:01;100005.91;;;13.48;100.00
10897;BME280;5501;51.176;6.470;2023-10-31T23:59:03;100011.41;;;13.62;100.00
